Paia, Hawaii
Current Conditions -  °F | °C
As of 2:54 AM on Sunday 21 Dec 2014 (Local Time) from PHOG Reporting Station
Overcast Overcast  
Wind Chill: 68°   Ceiling: 6000
Heat Index: 68°   Visibility: 10mi
Dew Point: 63°   Wind: 5mph
Humidity: 84%   Direction: 150°SSE
Pressure: 30.01"   Gusts: NA
Location:  20.89°N, 156.36°W
Report Text: PHOG 211254Z AUTO 15004KT 10SM OVC060 20/17 A3001 RMK AO2 SLP167 T02000172 TSNO $
Loading
Personal Weather Stations






























Interactive Weather Map New forecast layout! Learn more

10-Day Weather Forecast

Advertisements
Track Severe Weather on mobile